Aurora, Texas
Current Conditions -  °F | °C
As of 9:53 PM on Tuesday 25 Nov 2014 (Local Time) from KAFW Reporting Station
Broken Clouds Broken Clouds  
Wind Chill: 43°   Ceiling: 28000
Heat Index: 43°   Visibility: 10mi
Dew Point: 30°   Wind: 0mph
Humidity: 60%   Direction: NA
Pressure: 30.14"   Gusts: NA
Location:  33.0495°N, 97.45°W
Report Text: KAFW 260353Z 00000KT 10SM FEW180 BKN280 06/M01 A3014 RMK AO2 SLP210 T00611011
Loading
Personal Weather Stations






























Interactive Weather Map New forecast layout! Learn more

10-Day Weather Forecast

Advertisements
Track Severe Weather on mobile